createdAt,value
2023-01-04T00:02:23.507Z,-0.71
2023-01-04T00:07:26.787Z,-0.70
2023-01-04T00:12:31.134Z,-0.70
2023-01-04T00:17:34.760Z,-0.71
2023-01-04T00:22:37.995Z,-0.69
2023-01-04T00:27:42.518Z,-0.68
2023-01-04T00:32:45.473Z,-0.68
2023-01-04T00:37:51.868Z,-0.68
2023-01-04T00:42:56.562Z,-0.67
2023-01-04T00:47:59.451Z,-0.66
2023-01-04T00:53:02.395Z,-0.63
2023-01-04T00:58:06.688Z,-0.65
2023-01-04T01:03:09.826Z,-0.63
2023-01-04T01:08:27.950Z,-0.62
2023-01-04T01:13:32.345Z,-0.63
2023-01-04T01:18:35.807Z,-0.64
2023-01-04T01:23:38.912Z,-0.67
2023-01-04T01:28:43.911Z,-0.67
2023-01-04T01:33:47.964Z,-0.68
2023-01-04T01:38:51.486Z,-0.67
2023-01-04T01:43:56.970Z,-0.73
2023-01-04T01:49:02.140Z,-0.82
2023-01-04T01:54:08.080Z,-0.94
2023-01-04T01:59:13.620Z,-1.14
2023-01-04T02:04:17.090Z,-1.31
2023-01-04T02:09:20.707Z,-1.44
2023-01-04T02:14:31.055Z,-1.58
2023-01-04T02:20:01.280Z,-1.74
2023-01-04T02:25:21.284Z,-1.85
2023-01-04T02:30:44.500Z,-1.87
2023-01-04T02:35:53.562Z,-1.95
2023-01-04T02:41:02.181Z,-2.01
2023-01-04T02:46:08.040Z,-2.06
2023-01-04T02:51:27.787Z,-2.12
2023-01-04T02:56:38.952Z,-2.18
2023-01-04T03:02:01.765Z,-2.28
2023-01-04T03:07:10.873Z,-2.32
2023-01-04T03:12:39.941Z,-2.39
2023-01-04T03:17:46.983Z,-2.50
2023-01-04T03:23:11.041Z,-2.55
2023-01-04T03:28:33.183Z,-2.62
2023-01-04T03:33:53.625Z,-2.75
2023-01-04T03:39:19.497Z,-2.83
2023-01-04T03:44:47.647Z,-2.87
2023-01-04T03:49:58.230Z,-2.92
2023-01-04T03:55:04.132Z,-2.94
2023-01-04T04:00:10.655Z,-3.01
2023-01-04T04:05:34.691Z,-3.06
2023-01-04T04:10:39.288Z,-3.09
2023-01-04T04:15:42.440Z,-3.14
2023-01-04T04:20:45.463Z,-3.16
2023-01-04T04:25:49.733Z,-3.16
2023-01-04T04:30:52.687Z,-3.13
2023-01-04T04:35:56.263Z,-3.13
2023-01-04T04:41:17.852Z,-3.12
2023-01-04T04:46:20.919Z,-3.15
2023-01-04T04:51:24.350Z,-3.18
2023-01-04T04:56:28.860Z,-3.21
2023-01-04T05:01:31.948Z,-3.22
2023-01-04T05:06:35.015Z,-3.23
2023-01-04T05:11:56.724Z,-3.21
2023-01-04T05:16:59.965Z,-3.22
2023-01-04T05:22:03.046Z,-3.22
2023-01-04T05:27:07.434Z,-3.22
2023-01-04T05:32:10.374Z,-3.26
2023-01-04T05:42:26.677Z,-3.23
2023-01-04T05:47:29.718Z,-3.26
2023-01-04T05:52:32.870Z,-3.30
2023-01-04T05:57:37.283Z,-3.31
2023-01-04T06:02:40.497Z,-3.31
2023-01-04T06:07:43.653Z,-3.28
2023-01-04T06:12:48.643Z,-3.30
2023-01-04T06:17:51.824Z,-3.27
2023-01-04T06:22:54.985Z,-3.32
2023-01-04T06:27:59.537Z,-3.38
2023-01-04T06:33:02.415Z,-3.42
2023-01-04T06:38:05.313Z,-3.45
2023-01-04T06:43:09.683Z,-3.48
2023-01-04T06:48:12.940Z,-3.51
2023-01-04T06:53:21.346Z,-3.49
2023-01-04T06:58:25.692Z,-3.50
2023-01-04T07:03:28.967Z,-3.52
2023-01-04T07:08:31.993Z,-3.54
2023-01-04T07:13:36.341Z,-3.60
2023-01-04T07:18:39.265Z,-3.61
2023-01-04T07:23:42.579Z,-3.61
2023-01-04T07:29:04.105Z,-3.62
2023-01-04T07:34:07.237Z,-3.59
2023-01-04T07:39:12.632Z,-3.57
2023-01-04T07:44:18.288Z,-3.52
2023-01-04T07:49:21.418Z,-3.52
2023-01-04T07:54:25.161Z,-3.51
2023-01-04T07:59:29.513Z,-3.59
2023-01-04T08:04:35.228Z,-3.64
2023-01-04T08:09:38.534Z,-3.72
2023-01-04T08:14:43.066Z,-3.73
2023-01-04T08:19:54.723Z,-3.78
2023-01-04T08:24:57.821Z,-3.73
2023-01-04T08:30:02.289Z,-3.69
2023-01-04T08:35:06.799Z,-3.61
2023-01-04T08:40:10.873Z,-3.50
2023-01-04T08:45:15.236Z,-3.38
2023-01-04T08:50:20.548Z,-3.24
2023-01-04T08:55:23.914Z,-3.27
2023-01-04T09:00:28.434Z,-3.24
2023-01-04T09:05:33.222Z,-3.31
2023-01-04T09:10:37.937Z,-3.44
2023-01-04T09:15:42.294Z,-3.59
2023-01-04T09:20:45.388Z,-3.64
2023-01-04T09:25:48.294Z,-3.68
2023-01-04T09:30:52.926Z,-3.62
2023-01-04T09:35:56.241Z,-3.66
2023-01-04T09:41:03.253Z,-3.67
2023-01-04T09:46:09.640Z,-3.73
2023-01-04T09:51:15.170Z,-3.78
2023-01-04T09:56:21.605Z,-3.84
2023-01-04T10:01:27.378Z,-3.84
2023-01-04T10:06:30.434Z,-3.80
2023-01-04T10:11:41.391Z,-3.73
2023-01-04T10:17:14.222Z,-3.65
2023-01-04T10:22:21.735Z,-3.69
2023-01-04T10:27:27.941Z,-3.72
2023-01-04T10:32:37.440Z,-3.64
2023-01-04T10:37:40.865Z,-3.61
2023-01-04T10:42:47.942Z,-3.55
2023-01-04T10:47:57.791Z,-3.56
2023-01-04T10:53:03.987Z,-3.63
2023-01-04T10:58:11.510Z,-3.68
2023-01-04T11:03:19.195Z,-3.62
2023-01-04T11:08:24.749Z,-3.58
2023-01-04T11:13:27.674Z,-3.56
2023-01-04T11:18:32.906Z,-3.50
2023-01-04T11:23:35.893Z,-3.57
2023-01-04T11:28:42.420Z,-3.61
2023-01-04T11:33:57.563Z,-3.60
2023-01-04T11:39:00.610Z,-3.58
2023-01-04T11:44:05.080Z,-3.56
2023-01-04T11:49:19.991Z,-3.60
2023-01-04T11:54:23.005Z,-3.59
2023-01-04T11:59:26.058Z,-3.70
2023-01-04T12:04:35.469Z,-3.81
2023-01-04T12:09:38.798Z,-3.84
2023-01-04T12:14:46.048Z,-3.82
2023-01-04T12:19:53.864Z,-3.98
2023-01-04T12:25:00.975Z,-4.07
2023-01-04T12:30:06.487Z,-4.20
2023-01-04T12:35:27.986Z,-4.34
2023-01-04T12:40:49.810Z,-4.41
2023-01-04T12:46:28.807Z,-4.44
2023-01-04T12:51:34.126Z,-4.46
2023-01-04T12:56:55.653Z,-4.44
2023-01-04T13:02:19.659Z,-4.40
2023-01-04T13:07:27.409Z,-4.39
2023-01-04T13:12:48.172Z,-4.39
2023-01-04T13:17:51.800Z,-4.38
2023-01-04T13:22:57.450Z,-4.38
2023-01-04T13:28:01.488Z,-4.38
2023-01-04T13:33:28.357Z,-4.43
2023-01-04T13:38:34.863Z,-4.39
2023-01-04T13:43:46.333Z,-4.38
2023-01-04T13:48:50.934Z,-4.38
2023-01-04T13:53:55.983Z,-4.41
2023-01-04T13:58:59.012Z,-4.48
2023-01-04T14:04:02.957Z,-4.53
2023-01-04T14:09:15.009Z,-4.58
2023-01-04T14:14:32.775Z,-4.62
2023-01-04T14:19:42.950Z,-4.66
2023-01-04T14:30:24.394Z,-4.59
2023-01-04T14:35:30.422Z,-4.60
2023-01-04T14:40:36.359Z,-4.57
2023-01-04T14:45:39.669Z,-4.55
2023-01-04T14:50:43.409Z,-4.50
2023-01-04T14:55:50.815Z,-4.51
2023-01-04T15:00:55.045Z,-4.48
2023-01-04T15:05:59.289Z,-4.43
2023-01-04T15:11:04.549Z,-4.42
2023-01-04T15:16:09.472Z,-4.37
2023-01-04T15:21:13.863Z,-4.36
2023-01-04T15:26:19.156Z,-4.31
2023-01-04T15:31:30.056Z,-4.27
2023-01-04T15:36:38.934Z,-4.21
2023-01-04T15:42:00.843Z,-4.19
2023-01-04T15:47:04.163Z,-4.17
2023-01-04T15:52:08.119Z,-4.14
2023-01-04T15:57:14.287Z,-4.13
2023-01-04T16:02:18.537Z,-4.11
2023-01-04T16:07:22.207Z,-4.09
2023-01-04T16:12:51.446Z,-4.08
2023-01-04T16:18:00.519Z,-4.08
2023-01-04T16:23:04.436Z,-4.09
2023-01-04T16:28:09.879Z,-4.11
2023-01-04T16:33:13.784Z,-4.10
2023-01-04T16:38:17.284Z,-4.08
2023-01-04T16:43:22.127Z,-4.04
2023-01-04T16:48:25.580Z,-4.03
2023-01-04T16:53:28.857Z,-4.02
2023-01-04T16:58:33.735Z,-4.02
2023-01-04T17:03:37.720Z,-4.06
2023-01-04T17:08:41.162Z,-4.06
2023-01-04T17:13:46.259Z,-4.09
2023-01-04T17:18:50.907Z,-4.14
2023-01-04T17:23:56.096Z,-4.17
2023-01-04T17:29:01.949Z,-4.14
2023-01-04T17:34:05.284Z,-4.14
2023-01-04T17:39:09.343Z,-4.14
2023-01-04T17:44:13.725Z,-4.07
2023-01-04T17:49:30.553Z,-4.05
2023-01-04T17:54:34.162Z,-4.06
2023-01-04T17:59:38.499Z,-4.06
2023-01-04T18:04:41.954Z,-4.04
2023-01-04T18:09:45.030Z,-4.04
2023-01-04T18:14:50.266Z,-4.00
2023-01-04T18:19:53.222Z,-3.94
2023-01-04T18:24:56.250Z,-3.91
2023-01-04T18:30:00.698Z,-3.87
2023-01-04T18:35:05.681Z,-3.84
2023-01-04T18:45:27.580Z,-3.74
2023-01-04T18:50:30.564Z,-3.72
2023-01-04T18:55:33.531Z,-3.68
2023-01-04T19:00:37.957Z,-3.64
2023-01-04T19:05:41.471Z,-3.59
2023-01-04T19:10:44.433Z,-3.57
2023-01-04T19:15:49.262Z,-3.53
2023-01-04T19:20:52.441Z,-3.48
2023-01-04T19:25:56.027Z,-3.44
2023-01-04T19:31:00.330Z,-3.42
2023-01-04T19:36:03.301Z,-3.40
2023-01-04T19:41:06.840Z,-3.35
2023-01-04T19:46:12.853Z,-3.27
2023-01-04T19:51:16.568Z,-3.22
2023-01-04T19:56:19.506Z,-3.22
2023-01-04T20:01:24.291Z,-3.21
2023-01-04T20:06:27.683Z,-3.21
2023-01-04T20:11:31.857Z,-3.20
2023-01-04T20:16:36.359Z,-3.18
2023-01-04T20:21:39.502Z,-3.16
2023-01-04T20:26:42.912Z,-3.20
2023-01-04T20:31:47.488Z,-3.25
2023-01-04T20:36:50.379Z,-3.25
2023-01-04T20:42:10.807Z,-3.22
2023-01-04T20:47:15.251Z,-3.21
2023-01-04T20:52:18.210Z,-3.22
2023-01-04T20:57:21.129Z,-3.23
2023-01-04T21:02:25.579Z,-3.30
2023-01-04T21:07:29.892Z,-3.37
2023-01-04T21:12:33.055Z,-3.52
2023-01-04T21:17:38.340Z,-3.43
2023-01-04T21:22:41.309Z,-3.31
2023-01-04T21:27:44.327Z,-3.26
2023-01-04T21:32:48.834Z,-3.24
2023-01-04T21:37:51.989Z,-3.23
2023-01-04T21:42:54.985Z,-3.21
2023-01-04T21:47:59.469Z,-3.21
2023-01-04T21:53:02.559Z,-3.26
2023-01-04T21:58:05.583Z,-3.30
2023-01-04T22:03:11.858Z,-3.35
2023-01-04T22:08:14.904Z,-3.38
2023-01-04T22:13:17.840Z,-3.41
2023-01-04T22:18:22.173Z,-3.41
2023-01-04T22:23:25.193Z,-3.43
2023-01-04T22:28:34.694Z,-3.46
2023-01-04T22:33:41.400Z,-3.46
2023-01-04T22:38:44.299Z,-3.46
2023-01-04T22:43:47.234Z,-3.46
2023-01-04T22:48:51.683Z,-3.48
2023-01-04T22:53:55.200Z,-3.50
2023-01-04T22:58:58.895Z,-3.58
2023-01-04T23:04:03.873Z,-3.61
2023-01-04T23:09:08.216Z,-3.59
2023-01-04T23:14:13.518Z,-3.63
2023-01-04T23:19:18.004Z,-3.72
2023-01-04T23:24:20.937Z,-3.79
2023-01-04T23:29:23.996Z,-3.74
2023-01-04T23:34:28.970Z,-3.71
2023-01-04T23:39:31.973Z,-3.66
2023-01-04T23:44:35.410Z,-3.62
2023-01-04T23:49:40.503Z,-3.58
2023-01-04T23:54:43.391Z,-3.56
2023-01-04T23:59:46.346Z,-3.53
